Time;durP1;ratioP1;P1;durP2;ratioP2;P2;SDS_P1;SDS_P2;PMS_P1;PMS_P2;Temp;Humidity;BMP_temperature;BMP_pressure;BME280_temperature;BME280_humidity;BME280_pressure;Samples;Min_cycle;Max_cycle;Signal;HPM_P1;HPM_P2
2023/05/23 00:01:36;;;;;;;3.60;3.30;;;26.10;54.70;;;;;;5054593;28;20210;-45
2023/05/23 00:04:08;;;;;;;3.93;3.60;;;26.10;54.70;;;;;;5064823;28;20210;-46
2023/05/23 00:06:55;;;;;;;2.90;2.70;;;26.00;54.50;;;;;;5060800;28;20292;-46
2023/05/23 00:09:29;;;;;;;3.43;3.13;;;26.00;54.70;;;;;;5068960;28;20210;-45
2023/05/23 00:11:59;;;;;;;5.60;3.30;;;26.00;54.60;;;;;;5068276;28;20681;-45
2023/05/23 00:14:32;;;;;;;3.10;2.83;;;26.00;54.60;;;;;;5068779;28;20276;-45
2023/05/23 00:17:06;;;;;;;4.23;3.03;;;26.00;54.50;;;;;;5069246;28;20705;-45
2023/05/23 00:19:44;;;;;;;3.43;3.03;;;26.00;54.30;;;;;;5066577;28;20204;-45
2023/05/23 00:22:16;;;;;;;3.03;2.83;;;26.00;54.50;;;;;;5063599;28;20209;-45
2023/05/23 00:24:46;;;;;;;4.63;3.17;;;26.00;54.40;;;;;;5068535;28;20225;-45
2023/05/23 00:27:16;;;;;;;3.30;3.00;;;26.00;54.40;;;;;;5065535;28;20208;-46
2023/05/23 00:29:47;;;;;;;3.23;2.93;;;26.00;54.50;;;;;;5069258;28;20202;-45
2023/05/23 00:32:15;;;;;;;3.37;3.07;;;26.00;54.30;;;;;;5063249;28;20257;-45
2023/05/23 00:34:45;;;;;;;3.73;3.43;;;25.90;54.40;;;;;;5068091;28;20255;-45
2023/05/23 00:37:15;;;;;;;3.10;2.80;;;26.00;54.50;;;;;;5055813;28;20615;-46
2023/05/23 00:39:48;;;;;;;3.33;3.03;;;25.90;54.40;;;;;;5067266;28;20194;-45
2023/05/23 00:42:18;;;;;;;3.87;3.40;;;25.90;54.40;;;;;;5063365;28;20257;-45
2023/05/23 00:44:49;;;;;;;3.27;2.97;;;26.00;54.40;;;;;;5076816;28;20215;-45
2023/05/23 00:47:20;;;;;;;3.60;3.30;;;25.90;54.40;;;;;;5068848;28;20267;-45
2023/05/23 00:49:51;;;;;;;3.50;3.20;;;25.90;54.30;;;;;;5068779;28;20193;-45
2023/05/23 00:52:22;;;;;;;3.43;3.10;;;25.90;54.30;;;;;;5065562;28;20190;-45
2023/05/23 00:54:57;;;;;;;3.83;3.23;;;25.90;54.30;;;;;;5052596;28;20220;-45
2023/05/23 00:57:26;;;;;;;4.37;3.17;;;25.90;54.40;;;;;;5068565;28;20520;-45
2023/05/23 00:59:56;;;;;;;3.57;3.27;;;25.90;54.10;;;;;;5051108;28;20631;-45
2023/05/23 01:02:26;;;;;;;3.30;3.00;;;25.90;54.20;;;;;;5066004;28;20224;-45
2023/05/23 01:04:58;;;;;;;3.40;3.10;;;25.90;54.10;;;;;;5045064;28;20197;-45
2023/05/23 01:07:30;;;;;;;3.73;3.30;;;25.90;54.10;;;;;;5043933;28;20643;-45
2023/05/23 01:10:04;;;;;;;3.00;2.80;;;25.80;54.00;;;;;;5067148;28;20243;-45
2023/05/23 01:12:57;;;;;;;3.27;2.90;;;25.90;54.30;;;;;;5068362;28;20205;-45
2023/05/23 01:15:58;;;;;;;3.53;3.17;;;25.80;54.10;;;;;;5062737;28;20211;-45
2023/05/23 01:18:40;;;;;;;4.10;3.50;;;25.80;54.10;;;;;;5018727;28;20245;-45
2023/05/23 01:21:18;;;;;;;4.37;3.07;;;25.80;53.90;;;;;;5057315;28;20224;-45
2023/05/23 01:23:59;;;;;;;3.80;3.00;;;25.80;53.90;;;;;;5051361;28;20225;-45
2023/05/23 01:27:05;;;;;;;3.47;3.17;;;25.80;54.00;;;;;;5067089;28;20189;-45
2023/05/23 01:29:43;;;;;;;3.10;2.80;;;25.80;54.00;;;;;;5059702;28;20197;-45
2023/05/23 01:32:27;;;;;;;3.30;3.00;;;25.80;53.90;;;;;;5064151;28;20257;-45
2023/05/23 01:34:57;;;;;;;3.63;3.33;;;25.80;53.90;;;;;;5033499;28;20194;-45
2023/05/23 01:37:28;;;;;;;3.70;3.40;;;25.80;53.80;;;;;;5068254;28;20202;-45
2023/05/23 01:39:59;;;;;;;3.20;3.00;;;25.80;53.80;;;;;;5058329;28;20271;-45
2023/05/23 01:42:29;;;;;;;3.17;2.87;;;25.70;53.70;;;;;;5062026;28;20253;-45
2023/05/23 01:44:59;;;;;;;3.40;3.10;;;25.80;53.90;;;;;;5059380;28;20650;-45
2023/05/23 01:47:40;;;;;;;3.20;2.97;;;25.70;53.90;;;;;;5063926;28;20196;-45
2023/05/23 01:50:14;;;;;;;3.27;2.97;;;25.80;53.80;;;;;;5069450;28;20630;-45
2023/05/23 01:52:46;;;;;;;4.87;3.47;;;25.70;53.80;;;;;;5073787;28;20204;-45
2023/05/23 01:55:21;;;;;;;3.40;3.10;;;25.70;53.50;;;;;;5054729;28;20201;-45
2023/05/23 01:58:03;;;;;;;3.33;3.03;;;25.70;53.60;;;;;;5045956;28;20515;-45
2023/05/23 02:00:48;;;;;;;4.50;3.50;;;25.70;53.80;;;;;;5052712;28;20189;-45
2023/05/23 02:03:17;;;;;;;3.33;3.03;;;25.60;53.30;;;;;;5075164;28;20811;-45
2023/05/23 02:05:58;;;;;;;3.77;3.33;;;25.60;53.60;;;;;;5074295;28;20265;-45
2023/05/23 02:08:41;;;;;;;3.57;3.20;;;25.50;53.80;;;;;;5074713;28;20201;-45
2023/05/23 02:11:16;;;;;;;4.43;3.93;;;25.40;54.00;;;;;;5074950;28;20204;-45
2023/05/23 02:13:47;;;;;;;3.90;3.50;;;25.40;54.20;;;;;;5074881;28;20214;-44
2023/05/23 02:16:14;;;;;;;3.50;3.20;;;25.30;54.30;;;;;;5066672;28;20205;-45
2023/05/23 02:18:45;;;;;;;3.93;3.30;;;25.20;54.40;;;;;;5071141;28;20224;-45
2023/05/23 02:21:12;;;;;;;3.30;3.00;;;25.20;54.50;;;;;;5074637;28;20209;-45
2023/05/23 02:23:42;;;;;;;3.70;3.40;;;25.20;54.70;;;;;;5074800;28;20182;-45
2023/05/23 02:26:12;;;;;;;4.80;3.80;;;25.10;54.70;;;;;;5054273;28;20248;-45
2023/05/23 02:28:41;;;;;;;3.43;3.13;;;25.00;54.70;;;;;;5073667;28;20567;-45
2023/05/23 02:31:10;;;;;;;5.20;4.10;;;25.00;54.70;;;;;;5067647;28;20217;-45
2023/05/23 02:33:44;;;;;;;4.07;3.40;;;25.00;54.70;;;;;;5057332;28;20208;-45
2023/05/23 02:36:13;;;;;;;5.00;4.10;;;24.90;54.80;;;;;;5064489;28;20225;-45
2023/05/23 02:38:41;;;;;;;4.67;3.77;;;24.90;54.70;;;;;;5075750;28;20198;-44
2023/05/23 02:41:11;;;;;;;4.50;3.87;;;24.80;54.80;;;;;;5076194;28;20210;-45
2023/05/23 02:43:41;;;;;;;5.13;4.00;;;24.80;54.80;;;;;;5062831;28;20210;-45
2023/05/23 02:46:14;;;;;;;4.80;3.93;;;24.70;54.80;;;;;;5071378;28;20194;-45
2023/05/23 02:48:50;;;;;;;6.67;3.50;;;24.60;54.80;;;;;;5074690;28;20201;-45
2023/05/23 02:51:21;;;;;;;5.63;3.93;;;24.60;54.90;;;;;;5070229;28;20210;-45
2023/05/23 02:53:54;;;;;;;4.97;3.60;;;24.50;54.90;;;;;;5053672;28;20193;-45
2023/05/23 02:56:28;;;;;;;4.40;3.77;;;24.60;55.10;;;;;;5069981;28;20675;-45
2023/05/23 02:58:59;;;;;;;4.23;3.70;;;24.50;55.20;;;;;;5071644;28;20200;-45
2023/05/23 03:01:29;;;;;;;3.90;3.57;;;24.50;55.20;;;;;;5071234;28;20210;-45
2023/05/23 03:03:59;;;;;;;4.30;3.90;;;24.50;55.20;;;;;;5053779;28;20564;-45
2023/05/23 03:06:31;;;;;;;4.27;3.47;;;24.40;55.30;;;;;;5055049;28;20225;-45
2023/05/23 03:09:04;;;;;;;4.73;3.80;;;24.40;55.30;;;;;;5066686;28;20209;-45
2023/05/23 03:11:36;;;;;;;4.07;3.77;;;24.40;55.40;;;;;;5048292;28;20194;-45
2023/05/23 03:14:07;;;;;;;5.63;3.83;;;24.40;55.50;;;;;;5068484;28;20244;-45
2023/05/23 03:16:39;;;;;;;6.77;4.00;;;24.30;55.50;;;;;;5070607;28;20212;-45
2023/05/23 03:19:09;;;;;;;4.33;3.83;;;24.30;55.50;;;;;;5068346;28;20202;-45
2023/05/23 03:21:40;;;;;;;3.80;3.50;;;24.30;55.60;;;;;;5070464;28;20209;-45
2023/05/23 03:24:11;;;;;;;4.40;3.73;;;24.30;55.60;;;;;;5068483;28;20671;-45
2023/05/23 03:26:44;;;;;;;4.70;4.07;;;24.20;55.60;;;;;;5068093;28;20198;-45
2023/05/23 03:29:16;;;;;;;4.27;3.80;;;24.20;55.70;;;;;;5043085;28;20197;-45
2023/05/23 03:31:46;;;;;;;4.27;3.63;;;24.10;55.80;;;;;;5066814;28;20236;-45
2023/05/23 03:34:18;;;;;;;4.13;3.73;;;24.10;55.80;;;;;;5069038;28;20200;-45
2023/05/23 03:36:49;;;;;;;4.33;3.93;;;24.10;55.90;;;;;;5070429;28;20193;-45
2023/05/23 03:39:22;;;;;;;4.10;3.60;;;24.10;55.80;;;;;;5071055;28;20267;-44
2023/05/23 03:41:54;;;;;;;4.77;3.57;;;24.00;55.80;;;;;;5070131;28;20225;-46
2023/05/23 03:44:25;;;;;;;4.63;3.60;;;24.00;55.80;;;;;;5066621;28;20273;-45
2023/05/23 03:46:57;;;;;;;4.73;3.73;;;24.00;55.90;;;;;;5072306;28;20665;-45
2023/05/23 03:49:26;;;;;;;4.97;3.63;;;24.00;55.90;;;;;;5067323;28;20194;-45
2023/05/23 03:51:56;;;;;;;6.33;3.73;;;24.00;56.00;;;;;;5062750;28;20201;-45
2023/05/23 03:54:24;;;;;;;4.03;3.67;;;23.90;56.00;;;;;;5064672;28;20225;-45
2023/05/23 03:56:56;;;;;;;5.30;3.77;;;23.90;56.00;;;;;;5079787;28;20271;-45
2023/05/23 03:59:26;;;;;;;3.77;3.30;;;23.90;56.00;;;;;;5070193;28;20243;-46
2023/05/23 04:01:57;;;;;;;4.47;3.40;;;23.90;56.10;;;;;;5079763;28;20275;-44
2023/05/23 04:04:29;;;;;;;4.07;3.67;;;23.80;56.10;;;;;;5069168;28;20819;-45
2023/05/23 04:07:04;;;;;;;6.47;3.90;;;23.80;56.10;;;;;;5056127;28;20194;-47
2023/05/23 04:09:34;;;;;;;4.50;3.47;;;23.80;56.20;;;;;;5062617;28;20221;-45
2023/05/23 04:12:07;;;;;;;5.30;3.60;;;23.90;55.70;;;;;;5074352;28;20201;-45
2023/05/23 04:14:39;;;;;;;6.03;3.80;;;23.90;55.70;;;;;;5058875;28;20202;-45
2023/05/23 04:17:10;;;;;;;3.63;3.07;;;24.00;55.90;;;;;;5068188;28;20225;-45
2023/05/23 04:19:39;;;;;;;6.40;3.30;;;24.00;55.60;;;;;;5059493;28;20206;-45
2023/05/23 04:22:10;;;;;;;4.37;3.83;;;24.10;55.60;;;;;;5063933;28;20243;-45
2023/05/23 04:24:41;;;;;;;3.90;2.90;;;24.10;55.50;;;;;;5069436;28;20201;-45
2023/05/23 04:27:10;;;;;;;3.20;2.67;;;24.20;55.60;;;;;;5069515;28;20204;-44
2023/05/23 04:29:40;;;;;;;3.73;3.20;;;24.20;56.00;;;;;;5068963;28;20205;-44
2023/05/23 04:32:07;;;;;;;3.40;3.10;;;24.20;55.30;;;;;;5063170;28;20569;-44
2023/05/23 04:34:49;;;;;;;4.13;3.30;;;24.20;55.30;;;;;;5067468;28;20277;-45
2023/05/23 04:37:21;;;;;;;3.47;3.17;;;24.30;55.40;;;;;;5068852;28;20211;-45
2023/05/23 04:39:55;;;;;;;3.57;3.20;;;24.30;55.20;;;;;;5069037;28;20262;-44
2023/05/23 04:42:28;;;;;;;4.50;3.27;;;24.20;55.30;;;;;;5066413;28;20653;-46
2023/05/23 04:45:02;;;;;;;5.10;3.07;;;24.20;55.50;;;;;;5066332;28;20208;-44
2023/05/23 04:47:36;;;;;;;3.27;2.93;;;24.20;55.60;;;;;;5068518;28;20212;-44
2023/05/23 04:50:09;;;;;;;4.07;3.37;;;24.20;55.50;;;;;;5058436;28;20198;-45
2023/05/23 04:52:40;;;;;;;3.73;3.17;;;24.30;55.30;;;;;;5067955;28;20282;-44
2023/05/23 04:55:13;;;;;;;3.40;3.10;;;24.30;55.40;;;;;;5053838;28;20449;-44
2023/05/23 04:57:44;;;;;;;3.90;3.10;;;24.30;55.30;;;;;;5053440;28;20208;-43
2023/05/23 05:00:15;;;;;;;3.30;3.00;;;24.20;55.40;;;;;;5066500;28;20201;-44
2023/05/23 05:02:45;;;;;;;6.07;2.90;;;24.30;55.50;;;;;;5068432;28;20224;-44
2023/05/23 05:05:14;;;;;;;4.17;3.13;;;24.30;55.30;;;;;;5067745;28;20198;-44
2023/05/23 05:07:45;;;;;;;3.63;3.33;;;24.30;55.30;;;;;;5068366;28;20243;-43
2023/05/23 05:10:16;;;;;;;4.33;3.10;;;24.40;55.30;;;;;;5064427;28;20275;-44
2023/05/23 05:12:51;;;;;;;3.20;2.90;;;24.30;55.30;;;;;;5068077;28;20198;-44
2023/05/23 05:15:24;;;;;;;3.60;3.10;;;24.40;55.30;;;;;;5067925;28;20197;-44
2023/05/23 05:18:05;;;;;;;4.57;3.53;;;24.40;55.00;;;;;;5063744;28;20262;-45
2023/05/23 05:20:36;;;;;;;4.63;2.93;;;24.40;54.40;;;;;;5066185;28;20217;-44
2023/05/23 05:23:08;;;;;;;3.40;3.10;;;24.40;54.60;;;;;;5068510;28;20220;-44
2023/05/23 05:25:46;;;;;;;5.30;3.30;;;24.40;54.60;;;;;;5059451;28;20687;-45
2023/05/23 05:28:16;;;;;;;4.17;3.30;;;24.40;54.60;;;;;;5064116;28;20201;-44
2023/05/23 05:30:52;;;;;;;5.43;3.27;;;24.40;54.70;;;;;;5069132;28;20182;-45
2023/05/23 05:33:34;;;;;;;4.17;3.77;;;24.30;54.60;;;;;;5059346;28;20283;-45
2023/05/23 05:36:06;;;;;;;4.33;3.50;;;24.30;54.60;;;;;;5062273;28;20600;-44
2023/05/23 05:38:38;;;;;;;5.40;3.43;;;24.20;54.40;;;;;;5072954;28;20193;-44
2023/05/23 05:41:08;;;;;;;3.97;3.57;;;24.20;54.50;;;;;;5060373;28;20601;-44
2023/05/23 05:43:45;;;;;;;5.03;3.20;;;24.20;54.70;;;;;;5048448;28;20555;-44
2023/05/23 05:46:17;;;;;;;6.30;4.33;;;24.10;54.50;;;;;;5051913;28;20216;-44
2023/05/23 05:48:46;;;;;;;3.90;3.60;;;24.10;54.60;;;;;;5049843;28;20198;-44
2023/05/23 05:51:17;;;;;;;5.43;3.77;;;24.00;54.60;;;;;;5061976;28;20198;-44
2023/05/23 05:53:48;;;;;;;5.53;3.90;;;24.00;54.70;;;;;;5069171;28;20272;-44
2023/05/23 05:56:21;;;;;;;8.53;4.07;;;23.90;54.80;;;;;;5062965;28;20186;-44
2023/05/23 05:58:52;;;;;;;5.90;4.10;;;23.90;54.90;;;;;;5067286;28;20228;-44
2023/05/23 06:01:22;;;;;;;6.67;4.20;;;23.80;54.90;;;;;;5051860;28;20267;-45
2023/05/23 06:04:01;;;;;;;7.73;4.40;;;23.80;54.90;;;;;;5066288;28;20270;-45
2023/05/23 06:06:31;;;;;;;6.80;4.17;;;23.70;54.90;;;;;;5067526;28;20194;-44
2023/05/23 06:09:00;;;;;;;44.30;12.47;;;23.70;55.00;;;;;;5065815;28;20238;-44
2023/05/23 06:11:31;;;;;;;25.87;9.13;;;23.70;55.80;;;;;;5068724;28;20259;-45
2023/05/23 06:14:01;;;;;;;26.57;10.63;;;23.70;55.70;;;;;;5067578;28;20186;-45
2023/05/23 06:16:32;;;;;;;30.20;11.27;;;23.70;55.70;;;;;;5056482;28;20583;-45
2023/05/23 06:19:03;;;;;;;22.57;9.50;;;23.70;55.70;;;;;;5067142;28;20225;-45
2023/05/23 06:21:33;;;;;;;16.90;8.83;;;23.70;55.70;;;;;;5065859;28;20204;-45
2023/05/23 06:24:05;;;;;;;20.60;8.63;;;23.70;55.50;;;;;;5067126;28;20209;-44
2023/05/23 06:26:36;;;;;;;18.90;8.97;;;23.60;55.50;;;;;;5072730;28;20193;-44
2023/05/23 06:29:07;;;;;;;17.57;8.70;;;23.60;55.50;;;;;;5072996;28;20224;-45
2023/05/23 06:31:36;;;;;;;18.00;8.30;;;23.60;55.50;;;;;;5071928;28;20518;-45
2023/05/23 06:34:06;;;;;;;15.17;7.87;;;23.60;55.50;;;;;;5068603;28;20222;-45
2023/05/23 06:36:34;;;;;;;12.97;7.00;;;23.50;55.50;;;;;;5045102;28;20635;-44
2023/05/23 06:39:04;;;;;;;17.13;7.67;;;23.50;55.50;;;;;;5072936;28;20201;-45
2023/05/23 06:41:39;;;;;;;13.53;6.40;;;23.50;55.50;;;;;;5075463;28;20571;-44
2023/05/23 06:44:11;;;;;;;13.43;7.17;;;23.50;55.50;;;;;;5073320;28;20210;-45
2023/05/23 06:46:48;;;;;;;15.27;7.03;;;23.40;55.50;;;;;;5070673;28;20248;-45
2023/05/23 06:49:18;;;;;;;14.07;7.33;;;23.40;55.60;;;;;;5057768;28;20692;-46
2023/05/23 06:51:47;;;;;;;11.30;6.77;;;23.40;55.60;;;;;;5056264;28;20725;-45
2023/05/23 06:54:19;;;;;;;14.07;6.70;;;23.40;55.60;;;;;;5060752;28;20202;-45
2023/05/23 06:56:46;;;;;;;11.90;6.37;;;23.40;55.70;;;;;;5063353;28;20229;-45
2023/05/23 06:59:15;;;;;;;13.47;6.80;;;23.30;55.60;;;;;;5060737;28;20322;-45
2023/05/23 07:01:46;;;;;;;10.87;5.67;;;23.40;55.60;;;;;;5060757;28;20634;-44
2023/05/23 07:04:16;;;;;;;13.23;5.33;;;23.30;55.60;;;;;;5040836;28;20205;-44
2023/05/23 07:06:49;;;;;;;13.10;5.70;;;23.30;55.40;;;;;;5064416;28;20221;-44
2023/05/23 07:09:16;;;;;;;9.37;5.50;;;23.30;55.50;;;;;;5055327;28;20230;-44
2023/05/23 07:11:49;;;;;;;8.20;4.87;;;23.30;55.50;;;;;;5061312;28;20199;-45
2023/05/23 07:14:19;;;;;;;8.47;4.87;;;23.30;55.30;;;;;;5061975;28;20206;-44
2023/05/23 07:16:51;;;;;;;11.43;4.93;;;23.30;55.50;;;;;;5069938;28;20251;-46
2023/05/23 07:19:23;;;;;;;7.60;4.23;;;23.20;55.50;;;;;;5061907;28;20217;-44
2023/05/23 07:21:52;;;;;;;9.93;5.17;;;23.20;55.50;;;;;;5062143;28;20210;-46
2023/05/23 07:24:22;;;;;;;7.07;4.47;;;23.10;55.40;;;;;;5057275;28;21020;-46
2023/05/23 07:26:53;;;;;;;8.07;4.37;;;23.10;55.30;;;;;;5052922;28;20198;-46
2023/05/23 07:29:25;;;;;;;7.73;4.63;;;23.10;55.40;;;;;;5058761;28;20217;-44
2023/05/23 07:32:08;;;;;;;9.40;4.50;;;23.10;55.40;;;;;;5028584;28;20328;-43
2023/05/23 07:34:51;;;;;;;10.50;4.20;;;23.10;55.40;;;;;;5058780;28;20264;-45
2023/05/23 07:37:34;;;;;;;8.90;4.53;;;23.10;55.10;;;;;;5061038;28;20233;-44
2023/05/23 07:40:11;;;;;;;9.17;4.60;;;23.10;55.00;;;;;;5058532;28;20193;-45
2023/05/23 07:42:52;;;;;;;7.83;4.27;;;23.10;55.00;;;;;;5041903;28;20224;-45
2023/05/23 07:45:21;;;;;;;8.13;4.47;;;23.10;54.90;;;;;;5056503;28;20221;-45
2023/05/23 07:47:56;;;;;;;5.57;3.60;;;23.00;54.90;;;;;;5066830;28;20190;-44
2023/05/23 07:50:27;;;;;;;7.73;4.00;;;23.10;55.20;;;;;;5055565;28;20200;-43
2023/05/23 07:52:54;;;;;;;6.93;3.47;;;23.00;54.90;;;;;;5065341;28;20267;-44
2023/05/23 07:55:23;;;;;;;7.27;4.17;;;23.00;54.90;;;;;;5061241;28;20267;-45
2023/05/23 07:57:55;;;;;;;8.20;3.60;;;23.00;55.00;;;;;;5061116;28;20214;-45
2023/05/23 08:00:26;;;;;;;4.77;3.60;;;23.00;54.90;;;;;;5066403;28;20252;-44
2023/05/23 08:03:00;;;;;;;7.03;3.80;;;23.00;55.00;;;;;;5065947;28;20226;-45
2023/05/23 08:05:28;;;;;;;6.80;3.80;;;23.00;54.80;;;;;;5069262;28;20194;-45
2023/05/23 08:07:59;;;;;;;6.33;3.43;;;23.00;54.60;;;;;;5062772;28;20192;-45
2023/05/23 08:10:30;;;;;;;6.10;3.87;;;23.00;54.80;;;;;;5065221;28;20213;-45
2023/05/23 08:13:08;;;;;;;8.33;3.67;;;22.90;55.00;;;;;;5059381;28;20197;-45
2023/05/23 08:15:40;;;;;;;4.97;3.57;;;23.00;55.30;;;;;;5064170;28;20198;-44
2023/05/23 08:18:12;;;;;;;5.27;3.23;;;22.90;55.10;;;;;;5062804;28;20210;-43
2023/05/23 08:20:42;;;;;;;7.13;3.53;;;23.00;55.00;;;;;;5065971;28;20221;-44
2023/05/23 08:23:11;;;;;;;6.37;3.40;;;23.00;55.00;;;;;;5068537;28;20209;-45
2023/05/23 08:25:41;;;;;;;7.87;3.73;;;23.00;55.00;;;;;;5057653;28;20225;-45
2023/05/23 08:28:11;;;;;;;5.53;3.80;;;23.00;54.90;;;;;;5064098;28;20603;-44
2023/05/23 08:30:42;;;;;;;4.73;3.27;;;22.90;54.60;;;;;;5051554;28;20185;-44
2023/05/23 08:33:11;;;;;;;10.23;3.83;;;22.90;54.40;;;;;;5062055;28;20296;-44
2023/05/23 08:35:48;;;;;;;6.93;3.80;;;22.90;54.40;;;;;;5061760;28;20496;-45
2023/05/23 08:38:20;;;;;;;5.33;3.60;;;22.90;54.50;;;;;;5060762;28;20197;-45
2023/05/23 08:40:55;;;;;;;5.87;3.60;;;22.90;54.30;;;;;;5068287;28;20197;-45
2023/05/23 08:43:28;;;;;;;5.27;3.50;;;22.90;54.30;;;;;;5062989;28;20238;-44
2023/05/23 08:45:58;;;;;;;5.87;3.47;;;22.90;54.50;;;;;;5061297;28;20214;-44
2023/05/23 08:48:29;;;;;;;5.33;3.57;;;22.90;54.50;;;;;;5030383;28;20210;-45
2023/05/23 08:51:34;;;;;;;4.40;3.57;;;22.90;54.60;;;;;;5063474;28;20185;-44
2023/05/23 08:54:08;;;;;;;5.77;3.50;;;22.90;54.60;;;;;;5050729;28;20204;-44
2023/05/23 08:56:38;;;;;;;5.47;3.23;;;22.90;54.50;;;;;;5060073;28;20567;-45
2023/05/23 08:59:13;;;;;;;5.13;3.23;;;22.90;54.60;;;;;;5038726;28;20529;-45
2023/05/23 09:01:47;;;;;;;8.07;3.63;;;22.90;54.30;;;;;;5047912;28;20197;-44
2023/05/23 09:04:19;;;;;;;5.50;3.57;;;22.90;54.40;;;;;;5056176;28;20228;-44
2023/05/23 09:06:47;;;;;;;6.97;3.80;;;22.90;54.40;;;;;;5066095;28;20620;-44
2023/05/23 09:09:18;;;;;;;5.33;3.47;;;22.90;54.30;;;;;;5059166;28;20210;-44
2023/05/23 09:11:50;;;;;;;4.77;2.93;;;22.90;54.40;;;;;;5065509;28;20197;-44
2023/05/23 09:14:21;;;;;;;4.30;3.40;;;22.90;54.60;;;;;;5065190;28;20197;-44
2023/05/23 09:16:49;;;;;;;4.87;2.90;;;22.90;54.70;;;;;;5068903;28;20189;-45
2023/05/23 09:19:21;;;;;;;5.73;3.17;;;22.90;54.90;;;;;;5042161;28;20220;-45
2023/05/23 09:21:53;;;;;;;4.40;3.30;;;22.90;54.70;;;;;;5064244;28;20217;-45
2023/05/23 09:24:34;;;;;;;4.70;3.10;;;22.90;54.80;;;;;;5028701;28;20206;-45
2023/05/23 09:27:07;;;;;;;5.70;3.20;;;22.90;55.00;;;;;;5061496;28;21414;-45
2023/05/23 09:29:42;;;;;;;5.90;3.00;;;22.80;54.70;;;;;;5057997;28;20209;-44
2023/05/23 09:32:17;;;;;;;4.60;2.73;;;22.80;54.60;;;;;;5061556;28;20236;-45
2023/05/23 09:35:12;;;;;;;3.47;2.67;;;22.80;54.80;;;;;;5033417;28;20190;-45
2023/05/23 09:37:45;;;;;;;4.37;2.70;;;22.90;55.00;;;;;;5063370;28;20310;-44
2023/05/23 09:40:16;;;;;;;5.87;2.83;;;22.80;54.70;;;;;;5041810;28;20197;-44
2023/05/23 09:42:47;;;;;;;3.50;2.40;;;22.80;54.70;;;;;;5065904;28;20673;-45
2023/05/23 09:45:15;;;;;;;5.17;2.80;;;22.90;54.40;;;;;;5045967;28;20279;-45
2023/05/23 09:47:53;;;;;;;5.10;2.80;;;22.80;54.50;;;;;;5030415;28;20606;-44
2023/05/23 09:50:34;;;;;;;4.57;2.70;;;22.90;54.80;;;;;;5057001;28;20600;-45
2023/05/23 09:53:02;;;;;;;5.80;2.90;;;22.90;54.50;;;;;;5066526;28;20589;-45
2023/05/23 09:55:33;;;;;;;3.57;2.60;;;22.90;54.50;;;;;;5057048;28;20198;-44
2023/05/23 09:58:06;;;;;;;5.80;2.07;;;22.90;54.40;;;;;;5064444;28;20248;-44
2023/05/23 10:00:37;;;;;;;3.90;2.40;;;22.80;54.20;;;;;;5065071;28;20201;-44
2023/05/23 10:03:12;;;;;;;3.93;2.27;;;22.90;54.30;;;;;;5067182;28;20638;-45
2023/05/23 10:05:54;;;;;;;3.27;1.77;;;22.90;54.30;;;;;;5054723;28;20204;-44
2023/05/23 10:08:42;;;;;;;6.07;2.43;;;22.90;54.30;;;;;;5065634;28;20204;-45
2023/05/23 10:11:33;;;;;;;7.23;2.93;;;22.90;53.90;;;;;;5052756;28;20186;-45
2023/05/23 10:14:12;;;;;;;4.97;2.37;;;22.90;54.10;;;;;;5070678;28;20292;-45
2023/05/23 10:17:10;;;;;;;5.43;2.43;;;22.90;53.80;;;;;;5053432;28;20275;-44
2023/05/23 10:19:48;;;;;;;4.03;2.13;;;22.90;53.80;;;;;;5063795;28;20248;-45
2023/05/23 10:22:23;;;;;;;5.93;2.30;;;22.90;54.30;;;;;;5032505;28;20243;-44
2023/05/23 10:24:53;;;;;;;4.30;2.10;;;22.90;54.30;;;;;;5055139;28;20213;-44
2023/05/23 10:27:25;;;;;;;6.43;2.37;;;22.90;54.30;;;;;;5041920;28;20197;-44
2023/05/23 10:30:00;;;;;;;3.97;2.20;;;22.90;53.90;;;;;;5034945;28;20205;-45
2023/05/23 10:32:28;;;;;;;6.03;2.43;;;22.90;53.70;;;;;;5046774;28;20213;-45
2023/05/23 10:35:25;;;;;;;4.10;2.17;;;22.90;53.40;;;;;;5048062;28;20236;-45
2023/05/23 10:38:06;;;;;;;4.50;2.10;;;22.90;53.50;;;;;;5057699;28;20308;-46
2023/05/23 10:41:20;;;;;;;4.97;2.40;;;22.90;53.50;;;;;;5067252;28;20235;-45
2023/05/23 10:44:21;;;;;;;5.77;2.40;;;22.90;53.40;;;;;;5040118;28;20245;-44
2023/05/23 10:46:56;;;;;;;4.47;2.00;;;22.90;53.60;;;;;;5069088;28;20639;-44
2023/05/23 10:49:50;;;;;;;3.80;1.77;;;23.00;53.80;;;;;;5069609;28;20194;-45
2023/05/23 10:52:20;;;;;;;4.43;1.80;;;22.90;53.30;;;;;;5059578;28;20205;-44
2023/05/23 10:55:16;;;;;;;2.90;1.80;;;23.00;53.90;;;;;;5043536;28;20212;-44
2023/05/23 10:57:46;;;;;;;4.30;1.93;;;22.90;53.70;;;;;;5060518;28;20209;-44
2023/05/23 11:00:16;;;;;;;4.03;1.97;;;23.00;53.80;;;;;;5062096;28;20207;-45
2023/05/23 11:03:03;;;;;;;6.23;2.40;;;23.00;53.90;;;;;;5055728;28;20245;-45
2023/05/23 11:05:42;;;;;;;4.17;1.83;;;23.00;53.30;;;;;;5065118;28;20198;-44
2023/05/23 11:08:13;;;;;;;5.30;2.10;;;23.00;53.60;;;;;;5065167;28;20210;-44
2023/05/23 11:11:11;;;;;;;5.27;2.07;;;23.00;53.90;;;;;;5061354;28;20248;-44
2023/05/23 11:13:59;;;;;;;6.17;2.23;;;23.00;53.60;;;;;;5054109;28;20206;-44
2023/05/23 11:16:48;;;;;;;4.50;2.20;;;23.00;53.60;;;;;;5054253;28;20198;-44
2023/05/23 11:19:30;;;;;;;5.07;2.37;;;23.00;53.70;;;;;;5052719;28;20258;-44
2023/05/23 11:22:04;;;;;;;8.90;2.20;;;23.00;53.40;;;;;;5022429;28;20214;-44
2023/05/23 11:24:54;;;;;;;5.50;2.63;;;23.00;53.20;;;;;;5046034;28;20222;-44
2023/05/23 11:27:38;;;;;;;4.40;2.10;;;23.00;53.40;;;;;;5038564;28;20276;-45
2023/05/23 11:30:16;;;;;;;5.90;2.50;;;23.00;53.60;;;;;;5030845;28;20225;-44
2023/05/23 11:32:54;;;;;;;6.57;2.67;;;23.00;53.70;;;;;;5062140;28;20765;-45
2023/05/23 11:35:23;;;;;;;4.77;2.60;;;23.00;53.40;;;;;;5052361;28;20219;-45
2023/05/23 11:37:56;;;;;;;4.40;2.20;;;23.00;53.30;;;;;;5044216;28;20202;-46
2023/05/23 11:40:31;;;;;;;4.50;2.47;;;23.10;53.30;;;;;;5056015;28;20225;-43
2023/05/23 11:43:13;;;;;;;4.50;2.77;;;23.00;53.40;;;;;;5060339;28;20198;-43
2023/05/23 11:45:45;;;;;;;5.60;2.50;;;23.10;53.60;;;;;;5064582;28;20194;-45
2023/05/23 11:48:17;;;;;;;6.97;2.67;;;23.10;53.70;;;;;;5057260;28;20206;-45
2023/05/23 11:50:53;;;;;;;5.37;2.50;;;23.10;53.50;;;;;;5052604;28;20186;-45
2023/05/23 11:53:26;;;;;;;4.60;2.40;;;23.10;53.90;;;;;;5052264;28;20197;-45
2023/05/23 11:56:01;;;;;;;5.40;2.10;;;23.10;54.00;;;;;;5042851;28;20215;-44
2023/05/23 11:58:36;;;;;;;7.23;2.73;;;23.10;53.60;;;;;;5049442;28;20647;-45
2023/05/23 12:01:08;;;;;;;4.80;2.73;;;23.10;53.60;;;;;;5042840;28;20212;-45
2023/05/23 12:03:52;;;;;;;4.67;2.50;;;23.10;53.70;;;;;;5050317;28;20233;-44
2023/05/23 12:06:23;;;;;;;4.23;2.27;;;23.10;53.70;;;;;;5057598;28;20199;-46
2023/05/23 12:08:55;;;;;;;5.30;2.30;;;23.10;53.70;;;;;;5062967;28;20206;-46
2023/05/23 12:11:25;;;;;;;4.70;2.10;;;23.10;53.50;;;;;;5062668;28;20198;-43
2023/05/23 12:13:53;;;;;;;5.83;2.43;;;23.10;53.40;;;;;;5068513;28;20206;-44
2023/05/23 12:16:22;;;;;;;4.63;2.33;;;23.10;53.20;;;;;;5065591;28;20255;-46
2023/05/23 12:18:54;;;;;;;6.07;2.27;;;23.10;53.40;;;;;;5044871;28;20194;-45
2023/05/23 12:21:43;;;;;;;4.37;2.17;;;23.10;53.30;;;;;;5051826;28;20229;-44
2023/05/23 12:24:25;;;;;;;6.13;2.43;;;23.20;53.60;;;;;;5061341;28;20234;-44
2023/05/23 12:27:04;;;;;;;5.37;2.77;;;23.10;53.30;;;;;;5064957;28;20235;-44
2023/05/23 12:29:36;;;;;;;4.93;2.70;;;23.10;52.80;;;;;;5058386;28;20217;-44
2023/05/23 12:32:07;;;;;;;5.97;2.50;;;23.20;53.30;;;;;;5057927;28;20276;-44
2023/05/23 12:34:41;;;;;;;4.23;2.50;;;23.10;53.00;;;;;;5053436;28;20259;-44
2023/05/23 12:37:08;;;;;;;6.10;2.33;;;23.20;53.30;;;;;;5051133;28;20232;-44
2023/05/23 12:39:49;;;;;;;5.40;2.53;;;23.10;53.00;;;;;;5043582;28;20766;-44
2023/05/23 12:42:19;;;;;;;3.87;2.60;;;23.20;53.30;;;;;;5063737;28;20190;-45
2023/05/23 12:44:53;;;;;;;7.17;2.27;;;23.20;53.50;;;;;;5063428;28;20233;-46
2023/05/23 12:47:25;;;;;;;4.33;2.20;;;23.20;52.90;;;;;;5064692;28;20202;-45
2023/05/23 12:49:56;;;;;;;4.90;2.03;;;23.20;52.70;;;;;;5066103;28;20202;-45
2023/05/23 12:52:27;;;;;;;4.87;2.27;;;23.20;53.20;;;;;;5061765;28;20218;-44
2023/05/23 12:55:01;;;;;;;5.37;2.00;;;23.20;53.10;;;;;;5058967;28;20673;-44
2023/05/23 12:57:47;;;;;;;4.47;2.23;;;23.20;52.90;;;;;;5063327;28;20205;-45
2023/05/23 13:00:39;;;;;;;4.00;2.10;;;23.20;52.50;;;;;;5055992;28;20623;-44
2023/05/23 13:03:14;;;;;;;6.67;2.43;;;23.20;52.30;;;;;;5057091;28;20205;-44
2023/05/23 13:05:43;;;;;;;4.23;2.03;;;23.20;52.40;;;;;;5055895;28;20233;-44
2023/05/23 13:08:14;;;;;;;5.60;2.20;;;23.20;52.30;;;;;;5046815;28;20205;-44
2023/05/23 13:10:43;;;;;;;8.27;2.33;;;23.20;52.20;;;;;;5050446;28;20208;-44
2023/05/23 13:13:15;;;;;;;5.63;2.10;;;23.30;51.80;;;;;;5063386;28;20701;-45
2023/05/23 13:15:43;;;;;;;4.83;2.17;;;23.30;51.60;;;;;;5044832;28;20190;-44
2023/05/23 13:18:16;;;;;;;5.17;2.37;;;23.30;51.70;;;;;;5048389;28;20197;-44
2023/05/23 13:20:46;;;;;;;6.23;2.17;;;23.30;52.20;;;;;;5064203;28;20210;-46